Contship Eco — D5OL9 — position and weather

sailwx.info

Track history (hours):
 
Tides and Currents Weather Stations Pressure Air Temp Water Temp Dewpoint Dewpoint Depression Visibility Wind Speed Wind Dir Waves Ship Positions

Contship Eco

Last reported at 2017-Nov-19 23:34 UTC. Time now 2017-Nov-22 03:42 UTC.
Position N 42°54' E 007°07'.

Length 124 m; draft 5.4 m.

Type: Cargo ship. MMSI: 636018167.

Date/timePositionNaut miles runAvg speedWind from/ knotsBaromVisibWave heightAir tempDewpointWater temp
2017-Nov-19 23:34N 42°54' E 007°07'114.1
2017-Nov-19 23:30N 42°55' E 007°08'713.7
2017-Nov-19 23:00N 42°58' E 007°16'1114.2
2017-Nov-19 22:14N 43°03' E 007°30'414.3
2017-Nov-19 21:58N 43°05' E 007°34'714.1
2017-Nov-19 21:30N 43°08' E 007°42'914.0
2017-Nov-19 20:53N 43°12' E 007°52'2314.0
2017-Nov-19 19:14N 43°23' E 008°20'614.0
2017-Nov-19 18:47N 43°26' E 008°28'414.1
2017-Nov-19 18:30N 43°28' E 008°33'714.1
2017-Nov-19 18:00N 43°32' E 008°41'714.1
2017-Nov-19 17:30N 43°35' E 008°50'5 9.0
2017-Nov-19 17:01N 43°39' E 008°53'3 5.5
2017-Nov-19 16:30N 43°38' E 008°57'3 5.5
2017-Nov-19 16:01N 43°39' E 009°00'714.1
2017-Nov-19 15:30N 43°43' E 009°09'714.3
2017-Nov-19 15:01N 43°46' E 009°18'714.2
2017-Nov-19 14:30N 43°50' E 009°26'714.2
2017-Nov-19 14:00N 43°53' E 009°35'715.0
2017-Nov-19 13:31N 43°57' E 009°43'713.5
2017-Nov-19 13:00N 44°00' E 009°52'5 9.2
2017-Nov-19 12:30N 44°05' E 009°51'2 3.1
2017-Nov-19 11:59N 44°07' E 009°51'0 0.0
2017-Nov-19 11:29N 44°07' E 009°51'0 0.0
2017-Nov-19 10:59N 44°07' E 009°51'0 0.0
2017-Nov-19 10:29N 44°07' E 009°51'0 0.0
2017-Nov-19 09:59N 44°07' E 009°51'0 0.0
2017-Nov-19 09:29N 44°07' E 009°51'0 0.0
2017-Nov-19 08:59N 44°07' E 009°51'0 0.0
2017-Nov-19 08:29N 44°07' E 009°51'0 0.0
2017-Nov-19 07:59N 44°07' E 009°51'0 0.0
2017-Nov-19 07:29N 44°07' E 009°51'0 0.0
2017-Nov-19 06:59N 44°07' E 009°51'0 0.0
2017-Nov-19 06:29N 44°07' E 009°51'0 0.0
2017-Nov-19 05:59N 44°07' E 009°51'0 0.3
2017-Nov-19 05:30N 44°06' E 009°50'4 7.6
2017-Nov-19 05:00N 44°03' E 009°52'4 8.5
2017-Nov-19 04:30N 43°59' E 009°54'713.1
2017-Nov-19 04:00N 43°56' E 009°47'714.2
2017-Nov-19 03:30N 43°53' E 009°38'714.6
2017-Nov-19 03:00N 43°49' E 009°29'815.1
2017-Nov-19 02:30N 43°45' E 009°20'815.2
2017-Nov-19 02:00N 43°41' E 009°11'713.9
2017-Nov-19 01:30N 43°37' E 009°03'713.2
2017-Nov-19 01:00N 43°34' E 008°55'815.2
2017-Nov-19 00:30N 43°30' E 008°46'815.2
2017-Nov-19 00:01N 43°26' E 008°38'815.0
2017-Nov-18 23:27N 43°22' E 008°28'1214.9
2017-Nov-18 22:39N 43°15' E 008°14'42 6.8
2017-Nov-18 16:24N 42°52' E 007°25'1 1.9
2017-Nov-18 15:44N 42°51' E 007°24'  
2017-Nov-10 03:17N 36°40' E 012°41'513.0
2017-Nov-10 02:55N 36°38' E 012°46'4014.2
2017-Nov-10 00:04N 36°16' E 013°28'114.6
2017-Nov-09 23:59N 36°15' E 013°29'  
Track history (hours):
 
Tides and Currents Weather Stations Pressure Air Temp Water Temp Dewpoint Dewpoint Depression Visibility Wind Speed Wind Dir Waves Ship Positions

Contship Eco

Last reported at 2017-Nov-19 23:34 UTC. Time now 2017-Nov-22 03:42 UTC.
Position N 42°54' E 007°07'.

Length 124 m; draft 5.4 m.

Type: Cargo ship. MMSI: 636018167.

Date/timePositionNaut miles runAvg speedWind from/ knotsBaromVisibWave heightAir tempDewpointWater temp
2017-Nov-19 23:34N 42°54' E 007°07'114.1
2017-Nov-19 23:30N 42°55' E 007°08'713.7
2017-Nov-19 23:00N 42°58' E 007°16'1114.2
2017-Nov-19 22:14N 43°03' E 007°30'414.3
2017-Nov-19 21:58N 43°05' E 007°34'714.1
2017-Nov-19 21:30N 43°08' E 007°42'914.0
2017-Nov-19 20:53N 43°12' E 007°52'2314.0
2017-Nov-19 19:14N 43°23' E 008°20'614.0
2017-Nov-19 18:47N 43°26' E 008°28'414.1
2017-Nov-19 18:30N 43°28' E 008°33'714.1
2017-Nov-19 18:00N 43°32' E 008°41'714.1
2017-Nov-19 17:30N 43°35' E 008°50'5 9.0
2017-Nov-19 17:01N 43°39' E 008°53'3 5.5
2017-Nov-19 16:30N 43°38' E 008°57'3 5.5
2017-Nov-19 16:01N 43°39' E 009°00'714.1
2017-Nov-19 15:30N 43°43' E 009°09'714.3
2017-Nov-19 15:01N 43°46' E 009°18'714.2
2017-Nov-19 14:30N 43°50' E 009°26'714.2
2017-Nov-19 14:00N 43°53' E 009°35'715.0
2017-Nov-19 13:31N 43°57' E 009°43'713.5
2017-Nov-19 13:00N 44°00' E 009°52'5 9.2
2017-Nov-19 12:30N 44°05' E 009°51'2 3.1
2017-Nov-19 11:59N 44°07' E 009°51'0 0.0
2017-Nov-19 11:29N 44°07' E 009°51'0 0.0
2017-Nov-19 10:59N 44°07' E 009°51'0 0.0
2017-Nov-19 10:29N 44°07' E 009°51'0 0.0
2017-Nov-19 09:59N 44°07' E 009°51'0 0.0
2017-Nov-19 09:29N 44°07' E 009°51'0 0.0
2017-Nov-19 08:59N 44°07' E 009°51'0 0.0
2017-Nov-19 08:29N 44°07' E 009°51'0 0.0
2017-Nov-19 07:59N 44°07' E 009°51'0 0.0
2017-Nov-19 07:29N 44°07' E 009°51'0 0.0
2017-Nov-19 06:59N 44°07' E 009°51'0 0.0
2017-Nov-19 06:29N 44°07' E 009°51'0 0.0
2017-Nov-19 05:59N 44°07' E 009°51'0 0.3
2017-Nov-19 05:30N 44°06' E 009°50'4 7.6
2017-Nov-19 05:00N 44°03' E 009°52'4 8.5
2017-Nov-19 04:30N 43°59' E 009°54'713.1
2017-Nov-19 04:00N 43°56' E 009°47'714.2
2017-Nov-19 03:30N 43°53' E 009°38'714.6
2017-Nov-19 03:00N 43°49' E 009°29'815.1
2017-Nov-19 02:30N 43°45' E 009°20'815.2
2017-Nov-19 02:00N 43°41' E 009°11'713.9
2017-Nov-19 01:30N 43°37' E 009°03'713.2
2017-Nov-19 01:00N 43°34' E 008°55'815.2
2017-Nov-19 00:30N 43°30' E 008°46'815.2
2017-Nov-19 00:01N 43°26' E 008°38'815.0
2017-Nov-18 23:27N 43°22' E 008°28'1214.9
2017-Nov-18 22:39N 43°15' E 008°14'42 6.8
2017-Nov-18 16:24N 42°52' E 007°25'1 1.9
2017-Nov-18 15:44N 42°51' E 007°24'  
2017-Nov-10 03:17N 36°40' E 012°41'513.0
2017-Nov-10 02:55N 36°38' E 012°46'4014.2
2017-Nov-10 00:04N 36°16' E 013°28'114.6
2017-Nov-09 23:59N 36°15' E 013°29'  

Dump ship's entire track history